sensor_id;sensor_type;location;lat;lon;timestamp;temperature;humidity
67101;DHT22;54019;61.746;16.106;2022-09-17T00:02:04;21.80;41.20
67101;DHT22;54019;61.746;16.106;2022-09-17T00:04:30;21.80;41.20
67101;DHT22;54019;61.746;16.106;2022-09-17T00:06:56;21.80;41.30
67101;DHT22;54019;61.746;16.106;2022-09-17T00:09:21;21.80;41.30
67101;DHT22;54019;61.746;16.106;2022-09-17T00:11:47;21.80;41.30
67101;DHT22;54019;61.746;16.106;2022-09-17T00:14:15;21.80;41.30
67101;DHT22;54019;61.746;16.106;2022-09-17T00:16:45;21.80;41.30
67101;DHT22;54019;61.746;16.106;2022-09-17T00:19:14;21.80;41.30
67101;DHT22;54019;61.746;16.106;2022-09-17T00:21:40;21.70;41.40
67101;DHT22;54019;61.746;16.106;2022-09-17T00:24:06;21.70;41.30
67101;DHT22;54019;61.746;16.106;2022-09-17T00:26:33;21.70;41.30
67101;DHT22;54019;61.746;16.106;2022-09-17T00:29:00;21.70;41.30
67101;DHT22;54019;61.746;16.106;2022-09-17T00:31:27;21.70;41.30
67101;DHT22;54019;61.746;16.106;2022-09-17T00:33:55;21.70;41.30
67101;DHT22;54019;61.746;16.106;2022-09-17T00:36:21;21.70;41.30
67101;DHT22;54019;61.746;16.106;2022-09-17T00:38:48;21.70;41.30
67101;DHT22;54019;61.746;16.106;2022-09-17T00:41:14;21.70;41.20
67101;DHT22;54019;61.746;16.106;2022-09-17T00:43:42;21.70;41.10
67101;DHT22;54019;61.746;16.106;2022-09-17T00:46:23;21.70;41.20
67101;DHT22;54019;61.746;16.106;2022-09-17T00:48:51;21.70;41.20
67101;DHT22;54019;61.746;16.106;2022-09-17T00:51:21;21.70;41.10
67101;DHT22;54019;61.746;16.106;2022-09-17T00:53:48;21.70;41.30
67101;DHT22;54019;61.746;16.106;2022-09-17T00:56:20;21.70;41.20
67101;DHT22;54019;61.746;16.106;2022-09-17T00:58:47;21.70;41.20
67101;DHT22;54019;61.746;16.106;2022-09-17T01:01:13;21.70;41.00
67101;DHT22;54019;61.746;16.106;2022-09-17T01:03:39;21.70;41.10
67101;DHT22;54019;61.746;16.106;2022-09-17T01:06:11;21.70;41.10
67101;DHT22;54019;61.746;16.106;2022-09-17T01:08:48;21.70;41.00
67101;DHT22;54019;61.746;16.106;2022-09-17T01:11:38;21.70;41.10
67101;DHT22;54019;61.746;16.106;2022-09-17T01:14:17;21.70;41.10
67101;DHT22;54019;61.746;16.106;2022-09-17T01:16:52;21.70;41.10
67101;DHT22;54019;61.746;16.106;2022-09-17T01:19:49;21.60;41.00
67101;DHT22;54019;61.746;16.106;2022-09-17T01:22:23;21.60;41.10
67101;DHT22;54019;61.746;16.106;2022-09-17T01:25:10;21.60;41.00
67101;DHT22;54019;61.746;16.106;2022-09-17T01:31:11;21.60;40.80
67101;DHT22;54019;61.746;16.106;2022-09-17T01:33:47;21.60;40.90
67101;DHT22;54019;61.746;16.106;2022-09-17T01:36:22;21.60;40.90
67101;DHT22;54019;61.746;16.106;2022-09-17T01:38:53;21.60;40.90
67101;DHT22;54019;61.746;16.106;2022-09-17T01:41:28;21.50;41.00
67101;DHT22;54019;61.746;16.106;2022-09-17T01:44:00;21.50;41.00
67101;DHT22;54019;61.746;16.106;2022-09-17T01:46:30;21.60;41.00
67101;DHT22;54019;61.746;16.106;2022-09-17T01:49:00;21.50;41.00
67101;DHT22;54019;61.746;16.106;2022-09-17T01:51:29;21.50;41.10
67101;DHT22;54019;61.746;16.106;2022-09-17T01:54:01;21.50;41.00
67101;DHT22;54019;61.746;16.106;2022-09-17T01:56:31;21.50;41.00
67101;DHT22;54019;61.746;16.106;2022-09-17T01:59:00;21.50;41.10
67101;DHT22;54019;61.746;16.106;2022-09-17T02:01:30;21.50;41.10
67101;DHT22;54019;61.746;16.106;2022-09-17T02:04:01;21.50;40.90
67101;DHT22;54019;61.746;16.106;2022-09-17T02:06:30;21.50;40.90
67101;DHT22;54019;61.746;16.106;2022-09-17T02:09:01;21.40;40.70
67101;DHT22;54019;61.746;16.106;2022-09-17T02:11:32;21.40;40.70
67101;DHT22;54019;61.746;16.106;2022-09-17T02:14:02;21.40;40.70
67101;DHT22;54019;61.746;16.106;2022-09-17T02:16:31;21.40;40.70
67101;DHT22;54019;61.746;16.106;2022-09-17T02:19:02;21.40;40.70
67101;DHT22;54019;61.746;16.106;2022-09-17T02:21:36;21.50;40.80
67101;DHT22;54019;61.746;16.106;2022-09-17T02:24:09;21.40;40.70
67101;DHT22;54019;61.746;16.106;2022-09-17T02:26:39;21.40;40.50
67101;DHT22;54019;61.746;16.106;2022-09-17T02:29:11;21.40;40.60
67101;DHT22;54019;61.746;16.106;2022-09-17T02:31:39;21.40;40.60
67101;DHT22;54019;61.746;16.106;2022-09-17T02:34:06;21.40;40.60
67101;DHT22;54019;61.746;16.106;2022-09-17T02:36:32;21.40;40.70
67101;DHT22;54019;61.746;16.106;2022-09-17T02:39:00;21.40;40.60
67101;DHT22;54019;61.746;16.106;2022-09-17T02:41:35;21.40;40.70
67101;DHT22;54019;61.746;16.106;2022-09-17T02:44:15;21.40;40.80
67101;DHT22;54019;61.746;16.106;2022-09-17T02:47:15;21.40;40.50
67101;DHT22;54019;61.746;16.106;2022-09-17T02:50:12;21.40;40.60
67101;DHT22;54019;61.746;16.106;2022-09-17T02:52:48;21.40;40.80
67101;DHT22;54019;61.746;16.106;2022-09-17T02:55:23;21.30;40.90
67101;DHT22;54019;61.746;16.106;2022-09-17T02:57:55;21.30;40.70
67101;DHT22;54019;61.746;16.106;2022-09-17T03:00:22;21.30;40.90
67101;DHT22;54019;61.746;16.106;2022-09-17T03:02:54;21.30;40.80
67101;DHT22;54019;61.746;16.106;2022-09-17T03:05:21;21.30;40.80
67101;DHT22;54019;61.746;16.106;2022-09-17T03:07:48;21.30;40.70
67101;DHT22;54019;61.746;16.106;2022-09-17T03:10:14;21.30;40.70
67101;DHT22;54019;61.746;16.106;2022-09-17T03:12:40;21.30;40.80
67101;DHT22;54019;61.746;16.106;2022-09-17T03:15:07;21.30;40.90
67101;DHT22;54019;61.746;16.106;2022-09-17T03:17:33;21.30;40.80
67101;DHT22;54019;61.746;16.106;2022-09-17T03:20:00;21.30;40.90
67101;DHT22;54019;61.746;16.106;2022-09-17T03:22:26;21.30;40.70
67101;DHT22;54019;61.746;16.106;2022-09-17T03:24:52;21.30;40.90
67101;DHT22;54019;61.746;16.106;2022-09-17T03:27:18;21.30;41.60
67101;DHT22;54019;61.746;16.106;2022-09-17T03:29:44;21.40;41.80
67101;DHT22;54019;61.746;16.106;2022-09-17T03:32:10;21.40;41.50
67101;DHT22;54019;61.746;16.106;2022-09-17T03:34:36;21.40;41.30
67101;DHT22;54019;61.746;16.106;2022-09-17T03:37:03;21.40;41.20
67101;DHT22;54019;61.746;16.106;2022-09-17T03:39:29;21.40;41.20
67101;DHT22;54019;61.746;16.106;2022-09-17T03:41:55;21.40;41.10
67101;DHT22;54019;61.746;16.106;2022-09-17T03:44:20;21.40;41.10
67101;DHT22;54019;61.746;16.106;2022-09-17T03:46:46;21.40;41.00
67101;DHT22;54019;61.746;16.106;2022-09-17T03:49:12;21.40;40.90
67101;DHT22;54019;61.746;16.106;2022-09-17T03:51:38;21.40;41.00
67101;DHT22;54019;61.746;16.106;2022-09-17T03:54:05;21.30;41.00
67101;DHT22;54019;61.746;16.106;2022-09-17T03:56:31;21.40;41.00
67101;DHT22;54019;61.746;16.106;2022-09-17T03:58:57;21.30;41.10
67101;DHT22;54019;61.746;16.106;2022-09-17T04:01:23;21.30;41.10
67101;DHT22;54019;61.746;16.106;2022-09-17T04:03:49;21.40;41.10
67101;DHT22;54019;61.746;16.106;2022-09-17T04:06:15;21.30;41.20
67101;DHT22;54019;61.746;16.106;2022-09-17T04:08:41;21.30;41.10
67101;DHT22;54019;61.746;16.106;2022-09-17T04:11:08;21.30;41.20
67101;DHT22;54019;61.746;16.106;2022-09-17T04:13:34;21.30;41.20
67101;DHT22;54019;61.746;16.106;2022-09-17T04:16:00;21.30;41.10
67101;DHT22;54019;61.746;16.106;2022-09-17T04:18:26;21.30;41.20
67101;DHT22;54019;61.746;16.106;2022-09-17T04:20:52;21.30;41.20
67101;DHT22;54019;61.746;16.106;2022-09-17T04:23:17;21.30;41.10
67101;DHT22;54019;61.746;16.106;2022-09-17T04:25:43;21.30;41.10
67101;DHT22;54019;61.746;16.106;2022-09-17T04:28:11;21.30;41.10
67101;DHT22;54019;61.746;16.106;2022-09-17T04:30:37;21.30;41.00
67101;DHT22;54019;61.746;16.106;2022-09-17T04:33:03;21.40;40.60
67101;DHT22;54019;61.746;16.106;2022-09-17T04:35:29;21.40;40.20
67101;DHT22;54019;61.746;16.106;2022-09-17T04:37:55;21.50;39.90
67101;DHT22;54019;61.746;16.106;2022-09-17T04:40:21;21.50;39.80
67101;DHT22;54019;61.746;16.106;2022-09-17T04:42:47;21.50;40.20
67101;DHT22;54019;61.746;16.106;2022-09-17T04:45:14;21.50;40.10
67101;DHT22;54019;61.746;16.106;2022-09-17T04:47:40;21.50;40.20
67101;DHT22;54019;61.746;16.106;2022-09-17T04:50:07;21.50;40.30
67101;DHT22;54019;61.746;16.106;2022-09-17T04:52:33;21.50;40.20
67101;DHT22;54019;61.746;16.106;2022-09-17T04:54:58;21.50;40.30
67101;DHT22;54019;61.746;16.106;2022-09-17T04:57:24;21.50;40.30
67101;DHT22;54019;61.746;16.106;2022-09-17T04:59:50;21.40;40.20
67101;DHT22;54019;61.746;16.106;2022-09-17T05:02:17;21.40;40.20
67101;DHT22;54019;61.746;16.106;2022-09-17T05:04:43;21.40;40.20
67101;DHT22;54019;61.746;16.106;2022-09-17T05:07:09;21.40;40.10
67101;DHT22;54019;61.746;16.106;2022-09-17T05:09:35;21.40;40.20
67101;DHT22;54019;61.746;16.106;2022-09-17T05:12:01;21.40;40.20
67101;DHT22;54019;61.746;16.106;2022-09-17T05:14:27;21.40;40.10
67101;DHT22;54019;61.746;16.106;2022-09-17T05:16:53;21.40;40.10
67101;DHT22;54019;61.746;16.106;2022-09-17T05:19:20;21.40;40.20
67101;DHT22;54019;61.746;16.106;2022-09-17T05:21:46;21.40;40.20
67101;DHT22;54019;61.746;16.106;2022-09-17T05:24:13;21.40;40.50
67101;DHT22;54019;61.746;16.106;2022-09-17T05:26:39;21.40;40.80
67101;DHT22;54019;61.746;16.106;2022-09-17T05:29:05;21.40;40.70
67101;DHT22;54019;61.746;16.106;2022-09-17T05:31:30;21.40;40.60
67101;DHT22;54019;61.746;16.106;2022-09-17T05:33:57;21.40;40.60
67101;DHT22;54019;61.746;16.106;2022-09-17T05:36:24;21.40;40.50
67101;DHT22;54019;61.746;16.106;2022-09-17T05:38:50;21.40;40.70
67101;DHT22;54019;61.746;16.106;2022-09-17T05:41:16;21.40;40.70
67101;DHT22;54019;61.746;16.106;2022-09-17T05:43:42;21.30;40.70
67101;DHT22;54019;61.746;16.106;2022-09-17T05:46:08;21.30;40.90
67101;DHT22;54019;61.746;16.106;2022-09-17T05:48:34;21.30;40.90
67101;DHT22;54019;61.746;16.106;2022-09-17T05:51:00;21.40;40.80
67101;DHT22;54019;61.746;16.106;2022-09-17T05:53:27;21.40;40.70
67101;DHT22;54019;61.746;16.106;2022-09-17T05:55:55;21.50;40.00
67101;DHT22;54019;61.746;16.106;2022-09-17T05:58:21;21.50;40.20
67101;DHT22;54019;61.746;16.106;2022-09-17T06:00:47;21.60;39.70
67101;DHT22;54019;61.746;16.106;2022-09-17T06:03:14;21.60;39.70
67101;DHT22;54019;61.746;16.106;2022-09-17T06:05:40;21.60;40.00
67101;DHT22;54019;61.746;16.106;2022-09-17T06:08:07;21.60;40.20
67101;DHT22;54019;61.746;16.106;2022-09-17T06:10:36;21.60;40.30
67101;DHT22;54019;61.746;16.106;2022-09-17T06:13:02;21.50;40.50
67101;DHT22;54019;61.746;16.106;2022-09-17T06:15:29;21.50;40.50
67101;DHT22;54019;61.746;16.106;2022-09-17T06:17:55;21.50;40.50
67101;DHT22;54019;61.746;16.106;2022-09-17T06:20:21;21.50;41.10
67101;DHT22;54019;61.746;16.106;2022-09-17T06:22:47;21.50;40.40
67101;DHT22;54019;61.746;16.106;2022-09-17T06:25:13;21.50;40.40
67101;DHT22;54019;61.746;16.106;2022-09-17T06:27:40;21.40;40.10
67101;DHT22;54019;61.746;16.106;2022-09-17T06:30:07;21.40;40.30
67101;DHT22;54019;61.746;16.106;2022-09-17T06:32:33;21.40;40.30
67101;DHT22;54019;61.746;16.106;2022-09-17T06:34:58;21.40;40.30
67101;DHT22;54019;61.746;16.106;2022-09-17T06:37:27;21.40;40.60
67101;DHT22;54019;61.746;16.106;2022-09-17T06:39:53;21.40;40.60
67101;DHT22;54019;61.746;16.106;2022-09-17T06:42:18;21.40;40.60
67101;DHT22;54019;61.746;16.106;2022-09-17T06:44:46;21.40;40.60
67101;DHT22;54019;61.746;16.106;2022-09-17T06:47:11;21.40;40.50
67101;DHT22;54019;61.746;16.106;2022-09-17T06:49:37;21.40;40.50
67101;DHT22;54019;61.746;16.106;2022-09-17T06:52:03;21.40;40.50
67101;DHT22;54019;61.746;16.106;2022-09-17T06:54:29;21.40;40.50
67101;DHT22;54019;61.746;16.106;2022-09-17T06:56:55;21.40;40.50
67101;DHT22;54019;61.746;16.106;2022-09-17T06:59:21;21.40;40.60
67101;DHT22;54019;61.746;16.106;2022-09-17T07:01:48;21.40;40.60
67101;DHT22;54019;61.746;16.106;2022-09-17T07:04:14;21.40;40.50
67101;DHT22;54019;61.746;16.106;2022-09-17T07:06:39;21.40;40.50
67101;DHT22;54019;61.746;16.106;2022-09-17T07:09:07;21.40;40.10
67101;DHT22;54019;61.746;16.106;2022-09-17T07:11:33;21.50;39.80
67101;DHT22;54019;61.746;16.106;2022-09-17T07:13:59;21.60;39.80
67101;DHT22;54019;61.746;16.106;2022-09-17T07:16:25;21.60;39.90
67101;DHT22;54019;61.746;16.106;2022-09-17T07:18:52;21.60;39.70
67101;DHT22;54019;61.746;16.106;2022-09-17T07:21:18;21.60;39.70
67101;DHT22;54019;61.746;16.106;2022-09-17T07:23:44;21.60;39.70
67101;DHT22;54019;61.746;16.106;2022-09-17T07:26:12;21.60;39.90
67101;DHT22;54019;61.746;16.106;2022-09-17T07:28:39;21.60;40.10
67101;DHT22;54019;61.746;16.106;2022-09-17T07:31:05;21.50;40.20
67101;DHT22;54019;61.746;16.106;2022-09-17T07:33:33;21.50;40.20
67101;DHT22;54019;61.746;16.106;2022-09-17T07:36:02;21.50;40.20
67101;DHT22;54019;61.746;16.106;2022-09-17T07:38:29;21.50;40.10
67101;DHT22;54019;61.746;16.106;2022-09-17T07:40:56;21.50;40.20
67101;DHT22;54019;61.746;16.106;2022-09-17T07:43:22;21.50;40.20
67101;DHT22;54019;61.746;16.106;2022-09-17T07:45:48;21.50;40.30
67101;DHT22;54019;61.746;16.106;2022-09-17T07:48:14;21.50;40.40
67101;DHT22;54019;61.746;16.106;2022-09-17T07:50:40;21.50;40.50
67101;DHT22;54019;61.746;16.106;2022-09-17T07:53:07;21.40;40.50
67101;DHT22;54019;61.746;16.106;2022-09-17T07:55:33;21.40;40.50
67101;DHT22;54019;61.746;16.106;2022-09-17T07:57:58;21.40;40.50
67101;DHT22;54019;61.746;16.106;2022-09-17T08:00:24;21.50;40.60
67101;DHT22;54019;61.746;16.106;2022-09-17T08:02:52;21.40;40.50
67101;DHT22;54019;61.746;16.106;2022-09-17T08:05:18;21.40;40.40
67101;DHT22;54019;61.746;16.106;2022-09-17T08:07:48;21.40;40.30
67101;DHT22;54019;61.746;16.106;2022-09-17T08:10:16;21.50;40.70
67101;DHT22;54019;61.746;16.106;2022-09-17T08:12:42;21.50;40.60
67101;DHT22;54019;61.746;16.106;2022-09-17T08:15:08;21.50;40.60
67101;DHT22;54019;61.746;16.106;2022-09-17T08:17:34;21.50;40.60
67101;DHT22;54019;61.746;16.106;2022-09-17T08:20:00;21.50;40.80
67101;DHT22;54019;61.746;16.106;2022-09-17T08:22:26;21.50;40.60
67101;DHT22;54019;61.746;16.106;2022-09-17T08:24:52;21.50;40.50
67101;DHT22;54019;61.746;16.106;2022-09-17T08:27:19;21.60;40.70
67101;DHT22;54019;61.746;16.106;2022-09-17T08:29:45;21.60;40.70
67101;DHT22;54019;61.746;16.106;2022-09-17T08:32:11;21.60;40.90
67101;DHT22;54019;61.746;16.106;2022-09-17T08:34:36;21.70;40.10
67101;DHT22;54019;61.746;16.106;2022-09-17T08:37:02;21.70;40.10
67101;DHT22;54019;61.746;16.106;2022-09-17T08:39:28;21.70;40.10
67101;DHT22;54019;61.746;16.106;2022-09-17T08:42:03;21.70;40.40
67101;DHT22;54019;61.746;16.106;2022-09-17T08:44:38;21.70;40.40
67101;DHT22;54019;61.746;16.106;2022-09-17T08:47:12;21.70;40.30
67101;DHT22;54019;61.746;16.106;2022-09-17T08:49:44;21.70;40.10
67101;DHT22;54019;61.746;16.106;2022-09-17T08:52:26;21.60;40.00
67101;DHT22;54019;61.746;16.106;2022-09-17T08:55:04;21.70;41.30
67101;DHT22;54019;61.746;16.106;2022-09-17T08:57:37;21.80;41.70
67101;DHT22;54019;61.746;16.106;2022-09-17T09:00:11;21.80;41.40
67101;DHT22;54019;61.746;16.106;2022-09-17T09:02:50;21.90;41.80
67101;DHT22;54019;61.746;16.106;2022-09-17T09:05:20;21.90;41.90
67101;DHT22;54019;61.746;16.106;2022-09-17T09:07:50;22.00;41.60
67101;DHT22;54019;61.746;16.106;2022-09-17T09:10:19;22.00;41.20
67101;DHT22;54019;61.746;16.106;2022-09-17T09:12:46;22.00;41.40
67101;DHT22;54019;61.746;16.106;2022-09-17T09:15:23;22.00;41.40
67101;DHT22;54019;61.746;16.106;2022-09-17T09:17:51;22.00;41.50
67101;DHT22;54019;61.746;16.106;2022-09-17T09:20:19;21.90;41.20
67101;DHT22;54019;61.746;16.106;2022-09-17T09:22:49;21.90;41.10
67101;DHT22;54019;61.746;16.106;2022-09-17T09:25:21;21.90;41.90
67101;DHT22;54019;61.746;16.106;2022-09-17T09:27:55;21.80;41.30
67101;DHT22;54019;61.746;16.106;2022-09-17T09:30:29;21.80;41.10
67101;DHT22;54019;61.746;16.106;2022-09-17T09:33:06;21.80;41.00
67101;DHT22;54019;61.746;16.106;2022-09-17T09:35:40;21.80;40.90
67101;DHT22;54019;61.746;16.106;2022-09-17T09:38:14;21.80;40.90
67101;DHT22;54019;61.746;16.106;2022-09-17T09:40:47;21.70;40.80
67101;DHT22;54019;61.746;16.106;2022-09-17T09:43:19;21.70;40.80
67101;DHT22;54019;61.746;16.106;2022-09-17T09:46:04;21.60;40.90
67101;DHT22;54019;61.746;16.106;2022-09-17T09:48:37;21.70;41.30
67101;DHT22;54019;61.746;16.106;2022-09-17T09:51:15;21.70;41.30
67101;DHT22;54019;61.746;16.106;2022-09-17T09:53:51;21.80;41.20
67101;DHT22;54019;61.746;16.106;2022-09-17T09:56:37;21.80;40.60
67101;DHT22;54019;61.746;16.106;2022-09-17T09:59:10;21.80;40.60
67101;DHT22;54019;61.746;16.106;2022-09-17T10:01:39;21.80;40.60
67101;DHT22;54019;61.746;16.106;2022-09-17T10:04:15;21.80;40.30
67101;DHT22;54019;61.746;16.106;2022-09-17T10:06:41;21.80;40.50
67101;DHT22;54019;61.746;16.106;2022-09-17T10:09:12;21.80;40.40
67101;DHT22;54019;61.746;16.106;2022-09-17T10:11:38;21.80;40.50
67101;DHT22;54019;61.746;16.106;2022-09-17T10:14:18;21.80;40.40
67101;DHT22;54019;61.746;16.106;2022-09-17T10:16:47;21.80;40.50
67101;DHT22;54019;61.746;16.106;2022-09-17T10:19:18;21.70;40.50
67101;DHT22;54019;61.746;16.106;2022-09-17T10:21:44;21.80;40.40
67101;DHT22;54019;61.746;16.106;2022-09-17T10:24:18;21.70;40.40
67101;DHT22;54019;61.746;16.106;2022-09-17T10:26:46;21.70;40.30
67101;DHT22;54019;61.746;16.106;2022-09-17T10:29:14;21.70;40.30
67101;DHT22;54019;61.746;16.106;2022-09-17T10:31:52;21.80;40.20
67101;DHT22;54019;61.746;16.106;2022-09-17T10:34:20;21.70;40.50
67101;DHT22;54019;61.746;16.106;2022-09-17T10:36:47;21.70;40.40
67101;DHT22;54019;61.746;16.106;2022-09-17T10:39:31;21.70;40.30
67101;DHT22;54019;61.746;16.106;2022-09-17T10:41:59;21.70;40.40
67101;DHT22;54019;61.746;16.106;2022-09-17T10:44:26;21.60;40.50
67101;DHT22;54019;61.746;16.106;2022-09-17T10:46:54;21.70;40.60
67101;DHT22;54019;61.746;16.106;2022-09-17T10:49:34;21.60;40.50
67101;DHT22;54019;61.746;16.106;2022-09-17T10:52:06;21.70;40.60
67101;DHT22;54019;61.746;16.106;2022-09-17T10:54:51;21.60;40.40
67101;DHT22;54019;61.746;16.106;2022-09-17T10:57:28;21.60;40.50
67101;DHT22;54019;61.746;16.106;2022-09-17T11:00:07;21.70;40.70
67101;DHT22;54019;61.746;16.106;2022-09-17T11:03:08;21.60;40.50
67101;DHT22;54019;61.746;16.106;2022-09-17T11:05:58;21.60;40.40
67101;DHT22;54019;61.746;16.106;2022-09-17T11:08:30;21.60;40.50
67101;DHT22;54019;61.746;16.106;2022-09-17T11:11:02;21.60;40.40
67101;DHT22;54019;61.746;16.106;2022-09-17T11:13:36;21.60;40.50
67101;DHT22;54019;61.746;16.106;2022-09-17T11:16:30;21.60;40.50
67101;DHT22;54019;61.746;16.106;2022-09-17T11:19:13;21.60;40.40
67101;DHT22;54019;61.746;16.106;2022-09-17T11:21:45;21.60;40.40
67101;DHT22;54019;61.746;16.106;2022-09-17T11:27:17;21.70;40.50
67101;DHT22;54019;61.746;16.106;2022-09-17T11:29:59;21.60;40.40
67101;DHT22;54019;61.746;16.106;2022-09-17T11:32:39;21.60;40.30
67101;DHT22;54019;61.746;16.106;2022-09-17T11:35:15;21.70;40.40
67101;DHT22;54019;61.746;16.106;2022-09-17T11:37:45;21.70;40.20
67101;DHT22;54019;61.746;16.106;2022-09-17T11:40:15;21.70;40.30
67101;DHT22;54019;61.746;16.106;2022-09-17T11:42:46;21.80;40.30
67101;DHT22;54019;61.746;16.106;2022-09-17T11:45:17;21.80;40.20
67101;DHT22;54019;61.746;16.106;2022-09-17T11:47:47;21.80;40.10
67101;DHT22;54019;61.746;16.106;2022-09-17T11:50:20;21.80;40.10
67101;DHT22;54019;61.746;16.106;2022-09-17T11:52:52;21.80;40.10
67101;DHT22;54019;61.746;16.106;2022-09-17T11:55:27;21.80;40.20
67101;DHT22;54019;61.746;16.106;2022-09-17T11:57:59;21.80;40.20
67101;DHT22;54019;61.746;16.106;2022-09-17T12:00:28;21.90;40.10
67101;DHT22;54019;61.746;16.106;2022-09-17T12:02:58;21.80;40.20
67101;DHT22;54019;61.746;16.106;2022-09-17T12:05:30;21.90;40.20
67101;DHT22;54019;61.746;16.106;2022-09-17T12:08:02;21.80;40.10
67101;DHT22;54019;61.746;16.106;2022-09-17T12:10:36;21.80;40.20
67101;DHT22;54019;61.746;16.106;2022-09-17T12:13:10;21.80;40.10
67101;DHT22;54019;61.746;16.106;2022-09-17T12:15:40;21.80;40.10
67101;DHT22;54019;61.746;16.106;2022-09-17T12:18:19;21.80;40.10
67101;DHT22;54019;61.746;16.106;2022-09-17T12:20:51;21.80;40.00
67101;DHT22;54019;61.746;16.106;2022-09-17T12:23:25;21.80;40.00
67101;DHT22;54019;61.746;16.106;2022-09-17T12:26:02;21.80;40.10
67101;DHT22;54019;61.746;16.106;2022-09-17T12:28:34;21.80;40.00
67101;DHT22;54019;61.746;16.106;2022-09-17T12:31:04;21.90;40.10
67101;DHT22;54019;61.746;16.106;2022-09-17T12:33:35;21.90;40.20
67101;DHT22;54019;61.746;16.106;2022-09-17T12:36:35;21.90;40.20
67101;DHT22;54019;61.746;16.106;2022-09-17T12:39:30;21.90;40.30
67101;DHT22;54019;61.746;16.106;2022-09-17T12:42:06;21.90;40.20
67101;DHT22;54019;61.746;16.106;2022-09-17T12:44:51;21.90;40.20
67101;DHT22;54019;61.746;16.106;2022-09-17T12:47:44;21.90;40.20
67101;DHT22;54019;61.746;16.106;2022-09-17T12:50:20;21.80;40.10
67101;DHT22;54019;61.746;16.106;2022-09-17T12:53:01;21.80;40.20
67101;DHT22;54019;61.746;16.106;2022-09-17T12:56:00;21.80;40.30
67101;DHT22;54019;61.746;16.106;2022-09-17T12:58:40;21.80;40.20
67101;DHT22;54019;61.746;16.106;2022-09-17T13:01:16;21.80;40.20
67101;DHT22;54019;61.746;16.106;2022-09-17T13:03:49;21.80;40.20
67101;DHT22;54019;61.746;16.106;2022-09-17T13:06:41;21.80;40.30
67101;DHT22;54019;61.746;16.106;2022-09-17T13:12:18;21.90;40.70
67101;DHT22;54019;61.746;16.106;2022-09-17T13:15:02;21.90;41.00
67101;DHT22;54019;61.746;16.106;2022-09-17T13:17:37;22.00;41.20
67101;DHT22;54019;61.746;16.106;2022-09-17T13:20:13;22.00;41.20
67101;DHT22;54019;61.746;16.106;2022-09-17T13:22:44;22.00;41.40
67101;DHT22;54019;61.746;16.106;2022-09-17T13:25:12;22.00;41.60
67101;DHT22;54019;61.746;16.106;2022-09-17T13:27:42;22.10;41.70
67101;DHT22;54019;61.746;16.106;2022-09-17T13:30:09;22.10;41.90
67101;DHT22;54019;61.746;16.106;2022-09-17T13:32:46;22.20;41.50
67101;DHT22;54019;61.746;16.106;2022-09-17T13:35:49;22.20;41.20
67101;DHT22;54019;61.746;16.106;2022-09-17T13:38:16;22.20;41.70
67101;DHT22;54019;61.746;16.106;2022-09-17T13:40:43;22.30;41.50
67101;DHT22;54019;61.746;16.106;2022-09-17T13:43:12;22.20;42.00
67101;DHT22;54019;61.746;16.106;2022-09-17T13:46:13;22.30;41.90
67101;DHT22;54019;61.746;16.106;2022-09-17T13:48:47;22.30;42.40
67101;DHT22;54019;61.746;16.106;2022-09-17T13:51:44;22.40;42.20
67101;DHT22;54019;61.746;16.106;2022-09-17T13:54:11;22.40;42.00
67101;DHT22;54019;61.746;16.106;2022-09-17T13:56:40;22.40;42.10
67101;DHT22;54019;61.746;16.106;2022-09-17T13:59:09;22.30;42.10
67101;DHT22;54019;61.746;16.106;2022-09-17T14:01:55;22.30;42.10
67101;DHT22;54019;61.746;16.106;2022-09-17T14:04:33;22.30;41.80
67101;DHT22;54019;61.746;16.106;2022-09-17T14:06:59;22.30;41.80
67101;DHT22;54019;61.746;16.106;2022-09-17T14:09:51;22.30;42.00
67101;DHT22;54019;61.746;16.106;2022-09-17T14:18:41;22.50;41.70
67101;DHT22;54019;61.746;16.106;2022-09-17T14:21:24;22.50;42.00
67101;DHT22;54019;61.746;16.106;2022-09-17T14:23:55;22.50;41.80
67101;DHT22;54019;61.746;16.106;2022-09-17T14:26:42;22.50;41.60
67101;DHT22;54019;61.746;16.106;2022-09-17T14:29:31;22.50;42.10
67101;DHT22;54019;61.746;16.106;2022-09-17T14:31:59;22.50;42.10
67101;DHT22;54019;61.746;16.106;2022-09-17T14:34:26;22.50;42.00
67101;DHT22;54019;61.746;16.106;2022-09-17T14:36:54;22.60;42.10
67101;DHT22;54019;61.746;16.106;2022-09-17T14:39:23;22.60;41.90
67101;DHT22;54019;61.746;16.106;2022-09-17T14:41:50;22.70;41.70
67101;DHT22;54019;61.746;16.106;2022-09-17T14:44:19;22.60;40.60
67101;DHT22;54019;61.746;16.106;2022-09-17T14:46:50;22.50;40.70
67101;DHT22;54019;61.746;16.106;2022-09-17T14:49:19;22.40;40.40
67101;DHT22;54019;61.746;16.106;2022-09-17T14:51:46;22.40;40.40
67101;DHT22;54019;61.746;16.106;2022-09-17T14:54:20;22.30;40.40
67101;DHT22;54019;61.746;16.106;2022-09-17T14:56:59;22.20;40.40
67101;DHT22;54019;61.746;16.106;2022-09-17T14:59:36;22.20;40.50
67101;DHT22;54019;61.746;16.106;2022-09-17T15:02:27;22.20;40.60
67101;DHT22;54019;61.746;16.106;2022-09-17T15:04:53;22.20;40.80
67101;DHT22;54019;61.746;16.106;2022-09-17T15:07:21;22.30;41.20
67101;DHT22;54019;61.746;16.106;2022-09-17T15:09:48;22.20;40.70
67101;DHT22;54019;61.746;16.106;2022-09-17T15:12:15;22.20;40.70
67101;DHT22;54019;61.746;16.106;2022-09-17T15:14:44;22.20;40.90
67101;DHT22;54019;61.746;16.106;2022-09-17T15:17:13;22.20;40.80
67101;DHT22;54019;61.746;16.106;2022-09-17T15:19:40;22.20;40.80
67101;DHT22;54019;61.746;16.106;2022-09-17T15:22:09;22.20;40.70
67101;DHT22;54019;61.746;16.106;2022-09-17T15:24:41;22.10;40.80
67101;DHT22;54019;61.746;16.106;2022-09-17T15:27:12;22.10;40.70
67101;DHT22;54019;61.746;16.106;2022-09-17T15:29:41;22.10;40.90
67101;DHT22;54019;61.746;16.106;2022-09-17T15:32:11;22.10;41.00
67101;DHT22;54019;61.746;16.106;2022-09-17T15:34:37;22.10;41.20
67101;DHT22;54019;61.746;16.106;2022-09-17T15:37:03;22.10;41.90
67101;DHT22;54019;61.746;16.106;2022-09-17T15:39:30;22.10;42.00
67101;DHT22;54019;61.746;16.106;2022-09-17T15:41:57;22.20;42.60
67101;DHT22;54019;61.746;16.106;2022-09-17T15:44:25;22.30;42.70
67101;DHT22;54019;61.746;16.106;2022-09-17T15:46:51;22.40;42.90
67101;DHT22;54019;61.746;16.106;2022-09-17T15:49:28;22.50;43.20
67101;DHT22;54019;61.746;16.106;2022-09-17T15:51:54;22.70;43.00
67101;DHT22;54019;61.746;16.106;2022-09-17T15:54:28;22.70;42.40